createdAt,value
2023-01-27T00:01:06.741Z,9.60
2023-01-27T00:03:34.613Z,9.17
2023-01-27T00:06:06.401Z,9.37
2023-01-27T00:08:34.234Z,9.90
2023-01-27T00:11:20.751Z,9.10
2023-01-27T00:13:49.873Z,9.57
2023-01-27T00:16:17.714Z,9.87
2023-01-27T00:18:45.576Z,8.63
2023-01-27T00:21:30.948Z,11.20
2023-01-27T00:24:16.461Z,10.47
2023-01-27T00:26:44.277Z,8.57
2023-01-27T00:29:13.402Z,9.53
2023-01-27T00:31:58.684Z,10.30
2023-01-27T00:34:26.436Z,9.87
2023-01-27T00:36:54.214Z,10.27
2023-01-27T00:39:22.009Z,11.17
2023-01-27T00:41:49.813Z,10.30
2023-01-27T00:44:18.921Z,10.53
2023-01-27T00:46:46.782Z,10.93
2023-01-27T00:49:14.660Z,10.83
2023-01-27T00:51:42.467Z,10.83
2023-01-27T00:54:10.479Z,13.43
2023-01-27T00:56:38.805Z,11.50
2023-01-27T00:59:07.067Z,11.27
2023-01-27T01:01:36.344Z,12.47
2023-01-27T01:04:04.305Z,11.67
2023-01-27T01:06:32.093Z,11.83
2023-01-27T01:09:00.366Z,11.90
2023-01-27T01:11:28.260Z,11.60
2023-01-27T01:13:56.787Z,12.90
2023-01-27T01:16:25.907Z,11.90
2023-01-27T01:18:55.354Z,11.50
2023-01-27T01:21:23.423Z,11.23
2023-01-27T01:23:51.355Z,12.33
2023-01-27T01:26:19.275Z,13.00
2023-01-27T01:28:47.506Z,12.73
2023-01-27T01:31:17.537Z,11.90
2023-01-27T01:33:45.930Z,11.70
2023-01-27T01:36:16.816Z,13.80
2023-01-27T01:38:44.884Z,12.30
2023-01-27T01:41:16.744Z,12.30
2023-01-27T01:43:44.585Z,12.27
2023-01-27T01:46:13.075Z,11.70
2023-01-27T01:48:43.055Z,11.40
2023-01-27T01:51:14.056Z,12.37
2023-01-27T01:53:49.487Z,11.20
2023-01-27T01:56:22.382Z,12.27
2023-01-27T01:58:52.100Z,11.53
2023-01-27T02:01:20.274Z,11.83
2023-01-27T02:03:54.544Z,10.83
2023-01-27T02:06:22.895Z,11.47
2023-01-27T02:08:52.822Z,12.00
2023-01-27T02:11:20.730Z,12.37
2023-01-27T02:13:48.673Z,11.63
2023-01-27T02:16:16.616Z,12.67
2023-01-27T02:18:44.966Z,11.77
2023-01-27T02:21:12.804Z,12.50
2023-01-27T02:23:50.548Z,11.23
2023-01-27T02:26:22.501Z,10.97
2023-01-27T02:28:56.586Z,12.33
2023-01-27T02:31:24.856Z,10.80
2023-01-27T02:33:57.297Z,12.40
2023-01-27T02:36:25.670Z,12.37
2023-01-27T02:38:57.331Z,12.47
2023-01-27T02:41:33.147Z,12.50
2023-01-27T02:44:01.177Z,12.80
2023-01-27T02:46:29.031Z,14.80
2023-01-27T02:48:56.860Z,11.70
2023-01-27T02:51:24.951Z,12.47
2023-01-27T02:53:52.990Z,11.47
2023-01-27T02:56:20.891Z,11.70
2023-01-27T02:58:50.237Z,12.53
2023-01-27T03:01:18.144Z,13.20
2023-01-27T03:03:47.301Z,12.87
2023-01-27T03:06:15.873Z,12.50
2023-01-27T03:08:43.927Z,13.97
2023-01-27T03:11:12.229Z,13.37
2023-01-27T03:13:40.197Z,14.10
2023-01-27T03:16:27.189Z,13.90
2023-01-27T03:18:56.415Z,12.40
2023-01-27T03:21:24.259Z,14.13
2023-01-27T03:23:52.120Z,13.23
2023-01-27T03:26:19.977Z,12.90
2023-01-27T03:29:07.780Z,12.00
2023-01-27T03:31:37.041Z,13.17
2023-01-27T03:34:05.298Z,13.50
2023-01-27T03:36:50.811Z,14.10
2023-01-27T03:39:36.232Z,14.07
2023-01-27T03:42:21.744Z,12.57
2023-01-27T03:45:07.194Z,12.43
2023-01-27T03:47:36.320Z,13.43
2023-01-27T03:50:11.080Z,13.70
2023-01-27T03:52:38.965Z,12.27
2023-01-27T03:55:09.488Z,12.43
2023-01-27T03:57:38.305Z,11.87
2023-01-27T04:00:07.008Z,14.10
2023-01-27T04:02:53.668Z,11.87
2023-01-27T04:05:39.167Z,13.50
2023-01-27T04:08:07.346Z,12.73
2023-01-27T04:10:35.142Z,12.10
2023-01-27T04:13:01.985Z,12.43
2023-01-27T04:15:29.760Z,13.10
2023-01-27T04:17:58.869Z,13.20
2023-01-27T04:20:26.715Z,12.27
2023-01-27T04:22:54.475Z,13.90
2023-01-27T04:25:22.254Z,12.27
2023-01-27T04:27:50.031Z,13.60
2023-01-27T04:30:18.411Z,12.60
2023-01-27T04:32:46.214Z,13.40
2023-01-27T04:35:16.125Z,13.10
2023-01-27T04:37:43.905Z,12.40
2023-01-27T04:40:13.068Z,12.43
2023-01-27T04:42:40.828Z,12.77
2023-01-27T04:45:09.917Z,13.70
2023-01-27T04:47:37.683Z,12.47
2023-01-27T04:50:06.169Z,13.30
2023-01-27T04:52:35.276Z,14.10
2023-01-27T04:55:03.134Z,12.57
2023-01-27T04:57:30.937Z,14.20
2023-01-27T04:59:58.721Z,13.47
2023-01-27T05:02:26.485Z,13.80
2023-01-27T05:04:54.272Z,13.07
2023-01-27T05:07:22.067Z,12.30
2023-01-27T05:09:51.383Z,12.37
2023-01-27T05:12:19.207Z,11.90
2023-01-27T05:14:47.039Z,13.33
2023-01-27T05:17:15.120Z,13.00
2023-01-27T05:19:42.939Z,13.10
2023-01-27T05:22:11.242Z,12.03
2023-01-27T05:24:39.350Z,13.50
2023-01-27T05:27:08.477Z,13.30
2023-01-27T05:29:36.266Z,14.27
2023-01-27T05:32:04.112Z,13.20
2023-01-27T05:34:31.934Z,13.63
2023-01-27T05:36:59.705Z,14.00
2023-01-27T05:39:27.490Z,12.67
2023-01-27T05:41:55.317Z,14.30
2023-01-27T05:44:24.482Z,13.70
2023-01-27T05:46:52.296Z,14.57
2023-01-27T05:49:20.306Z,12.70
2023-01-27T05:51:48.154Z,14.47
2023-01-27T05:54:15.991Z,12.50
2023-01-27T05:56:43.881Z,13.40
2023-01-27T05:59:12.114Z,13.60
2023-01-27T06:01:41.315Z,12.30
2023-01-27T06:04:10.540Z,13.90
2023-01-27T06:06:38.441Z,13.77
2023-01-27T06:09:06.259Z,13.63
2023-01-27T06:11:34.224Z,13.10
2023-01-27T06:14:02.023Z,14.40
2023-01-27T06:16:29.898Z,13.80
2023-01-27T06:19:01.442Z,13.30
2023-01-27T06:21:29.280Z,13.43
2023-01-27T06:23:58.050Z,13.50
2023-01-27T06:26:26.076Z,13.53
2023-01-27T06:28:53.921Z,13.30
2023-01-27T06:31:23.093Z,14.47
2023-01-27T06:33:51.621Z,14.23
2023-01-27T06:36:22.354Z,12.97
2023-01-27T06:38:51.148Z,12.63
2023-01-27T06:41:19.081Z,13.60
2023-01-27T06:43:47.076Z,14.20
2023-01-27T06:46:15.130Z,14.63
2023-01-27T06:48:43.028Z,13.30
2023-01-27T06:51:11.050Z,12.93
2023-01-27T06:53:40.202Z,14.50
2023-01-27T06:56:08.597Z,15.23
2023-01-27T06:58:36.399Z,15.73
2023-01-27T07:01:06.568Z,15.13
2023-01-27T07:03:37.319Z,15.27
2023-01-27T07:06:05.437Z,15.63
2023-01-27T07:08:33.411Z,12.83
2023-01-27T07:11:05.478Z,15.00
2023-01-27T07:13:33.254Z,15.80
2023-01-27T07:16:01.429Z,14.00
2023-01-27T07:18:29.245Z,13.77
2023-01-27T07:20:57.193Z,14.70
2023-01-27T07:23:25.016Z,15.70
2023-01-27T07:25:52.836Z,15.27
2023-01-27T07:28:21.990Z,15.23
2023-01-27T07:30:49.883Z,15.13
2023-01-27T07:33:17.707Z,15.30
2023-01-27T07:35:45.535Z,14.60
2023-01-27T07:38:13.329Z,15.30
2023-01-27T07:40:41.177Z,14.50
2023-01-27T07:43:09.017Z,15.73
2023-01-27T07:45:38.176Z,16.77
2023-01-27T07:48:08.074Z,17.20
2023-01-27T07:50:35.990Z,16.73
2023-01-27T07:53:05.047Z,15.10
2023-01-27T07:55:34.110Z,15.10
2023-01-27T07:58:02.117Z,14.17
2023-01-27T08:00:30.361Z,14.50
2023-01-27T08:03:00.589Z,14.77
2023-01-27T08:05:29.172Z,15.90
2023-01-27T08:07:59.042Z,15.50
2023-01-27T08:10:27.421Z,15.37
2023-01-27T08:12:55.329Z,16.13
2023-01-27T08:15:23.394Z,16.90
2023-01-27T08:17:55.533Z,16.77
2023-01-27T08:20:25.971Z,15.30
2023-01-27T08:22:54.265Z,16.43
2023-01-27T08:25:22.685Z,15.57
2023-01-27T08:27:51.821Z,16.30
2023-01-27T08:30:20.156Z,17.00
2023-01-27T08:32:48.525Z,17.73
2023-01-27T08:35:16.557Z,15.73
2023-01-27T08:37:48.239Z,15.70
2023-01-27T08:40:16.887Z,15.83
2023-01-27T08:42:44.707Z,14.30
2023-01-27T08:45:12.866Z,16.53
2023-01-27T08:47:40.681Z,15.67
2023-01-27T08:50:09.960Z,15.80
2023-01-27T08:52:37.707Z,17.20
2023-01-27T08:55:07.427Z,16.17
2023-01-27T08:57:36.855Z,14.87
2023-01-27T09:00:06.872Z,17.20
2023-01-27T09:02:35.776Z,15.53
2023-01-27T09:05:03.637Z,15.87
2023-01-27T09:07:31.670Z,16.93
2023-01-27T09:10:13.325Z,17.10
2023-01-27T09:12:44.533Z,16.90
2023-01-27T09:15:12.912Z,17.00
2023-01-27T09:17:41.415Z,17.53
2023-01-27T09:20:11.056Z,15.07
2023-01-27T09:22:40.985Z,15.20
2023-01-27T09:25:10.278Z,17.30
2023-01-27T09:27:39.990Z,17.33
2023-01-27T09:30:11.536Z,16.20
2023-01-27T09:32:40.038Z,15.70
2023-01-27T09:35:08.330Z,15.10
2023-01-27T09:37:40.623Z,16.20
2023-01-27T09:40:27.374Z,16.50
2023-01-27T09:43:18.851Z,16.70
2023-01-27T09:46:12.932Z,15.50
2023-01-27T09:49:06.910Z,16.30
2023-01-27T09:51:45.511Z,15.80
2023-01-27T09:54:32.152Z,15.83
2023-01-27T09:57:10.319Z,14.50
2023-01-27T10:00:02.162Z,15.37
2023-01-27T10:02:56.798Z,13.50
2023-01-27T10:05:46.932Z,12.13
2023-01-27T10:08:52.384Z,12.37
2023-01-27T10:11:26.657Z,11.17
2023-01-27T10:14:10.730Z,11.70
2023-01-27T10:16:53.420Z,9.50
2023-01-27T10:19:40.125Z,9.23
2023-01-27T10:22:18.136Z,8.90
2023-01-27T10:25:00.034Z,8.50
2023-01-27T10:27:32.264Z,8.80
2023-01-27T10:30:06.368Z,8.77
2023-01-27T10:32:44.504Z,8.50
2023-01-27T10:35:20.747Z,8.00
2023-01-27T10:37:59.805Z,8.53
2023-01-27T10:40:35.754Z,8.87
2023-01-27T10:43:10.810Z,9.40
2023-01-27T10:45:41.832Z,8.80
2023-01-27T10:48:24.223Z,8.90
2023-01-27T10:50:59.714Z,7.70
2023-01-27T10:53:35.092Z,7.67
2023-01-27T10:56:09.162Z,7.73
2023-01-27T10:58:50.518Z,8.10
2023-01-27T11:01:22.448Z,7.90
2023-01-27T11:03:55.915Z,8.80
2023-01-27T11:06:30.426Z,8.40
2023-01-27T11:09:08.315Z,7.80
2023-01-27T11:11:46.228Z,8.20
2023-01-27T11:14:23.450Z,7.73
2023-01-27T11:16:53.977Z,8.50
2023-01-27T11:19:31.700Z,7.80
2023-01-27T11:22:08.379Z,8.73
2023-01-27T11:24:46.015Z,8.57
2023-01-27T11:27:26.260Z,8.23
2023-01-27T11:29:59.230Z,7.97
2023-01-27T11:32:39.723Z,7.30
2023-01-27T11:35:11.569Z,7.73
2023-01-27T11:37:42.642Z,8.03
2023-01-27T11:40:19.235Z,8.47
2023-01-27T11:42:47.350Z,8.50
2023-01-27T11:45:17.960Z,8.40
2023-01-27T11:47:47.705Z,7.87
2023-01-27T11:50:18.097Z,8.50
2023-01-27T11:52:50.658Z,8.27
2023-01-27T11:55:21.631Z,8.20
2023-01-27T11:57:54.825Z,7.30
2023-01-27T12:00:25.858Z,8.10
2023-01-27T12:03:02.034Z,7.10
2023-01-27T12:05:32.581Z,8.73
2023-01-27T12:08:03.220Z,8.77
2023-01-27T12:10:33.214Z,8.57
2023-01-27T12:13:08.931Z,9.33
2023-01-27T12:15:38.057Z,8.10
2023-01-27T12:18:13.754Z,7.53
2023-01-27T12:20:45.083Z,8.70
2023-01-27T12:23:22.401Z,8.17
2023-01-27T12:25:55.247Z,8.40
2023-01-27T12:28:30.929Z,9.20
2023-01-27T12:31:06.785Z,7.97
2023-01-27T12:33:37.347Z,8.53
2023-01-27T12:36:13.725Z,7.10
2023-01-27T12:38:47.215Z,8.40
2023-01-27T12:41:23.851Z,7.50
2023-01-27T12:43:53.633Z,6.80
2023-01-27T12:46:23.962Z,8.43
2023-01-27T12:48:53.583Z,7.00
2023-01-27T12:51:23.667Z,7.87
2023-01-27T12:54:12.984Z,7.30
2023-01-27T12:56:40.897Z,8.20
2023-01-27T12:59:14.307Z,7.00
2023-01-27T13:01:44.047Z,7.20
2023-01-27T13:04:16.992Z,8.17
2023-01-27T13:06:47.666Z,7.57
2023-01-27T13:09:28.085Z,7.33
2023-01-27T13:11:58.057Z,7.50
2023-01-27T13:14:30.399Z,7.03
2023-01-27T13:16:59.862Z,6.30
2023-01-27T13:19:36.680Z,7.60
2023-01-27T13:22:05.901Z,8.70
2023-01-27T13:24:40.737Z,6.67
2023-01-27T13:27:16.315Z,6.60
2023-01-27T13:29:53.635Z,6.20
2023-01-27T13:32:25.340Z,6.20
2023-01-27T13:34:59.329Z,6.87
2023-01-27T13:37:33.498Z,5.57
2023-01-27T13:40:04.896Z,6.47
2023-01-27T13:42:37.926Z,6.00
2023-01-27T13:45:11.747Z,6.47
2023-01-27T13:47:47.800Z,7.00
2023-01-27T13:50:24.119Z,7.47
2023-01-27T13:52:56.079Z,6.60
2023-01-27T13:55:41.586Z,6.63
2023-01-27T13:58:18.850Z,6.00
2023-01-27T14:00:52.509Z,5.73
2023-01-27T14:03:44.884Z,5.90
2023-01-27T14:06:36.937Z,5.77
2023-01-27T14:09:20.085Z,7.10
2023-01-27T14:11:56.877Z,6.33
2023-01-27T14:14:56.207Z,6.47
2023-01-27T14:17:38.067Z,7.43
2023-01-27T14:20:38.778Z,6.60
2023-01-27T14:23:29.119Z,6.40
2023-01-27T14:26:09.439Z,5.30
2023-01-27T14:28:53.174Z,5.83
2023-01-27T14:31:24.632Z,6.17
2023-01-27T14:34:02.319Z,5.50
2023-01-27T14:36:34.176Z,6.20
2023-01-27T14:39:09.475Z,6.10
2023-01-27T14:41:43.627Z,6.13
2023-01-27T14:44:22.678Z,6.47
2023-01-27T14:46:59.950Z,7.47
2023-01-27T14:49:43.436Z,6.90
2023-01-27T14:52:25.025Z,6.30
2023-01-27T14:55:06.119Z,7.50
2023-01-27T14:57:44.382Z,7.63
2023-01-27T15:00:34.233Z,7.63
2023-01-27T15:03:31.409Z,7.17
2023-01-27T15:06:06.510Z,7.33
2023-01-27T15:08:40.134Z,8.23
2023-01-27T15:11:36.013Z,7.90
2023-01-27T15:14:24.030Z,8.53
2023-01-27T15:17:06.334Z,8.07
2023-01-27T15:20:00.052Z,8.50
2023-01-27T15:22:49.508Z,8.60
2023-01-27T15:25:29.596Z,8.80
2023-01-27T15:27:58.281Z,8.30
2023-01-27T15:30:28.538Z,9.07
2023-01-27T15:32:58.493Z,8.60
2023-01-27T15:35:36.199Z,9.10
2023-01-27T15:38:21.499Z,8.17
2023-01-27T15:41:04.663Z,8.53
2023-01-27T15:43:34.031Z,9.23
2023-01-27T15:46:28.279Z,8.80
2023-01-27T15:49:00.436Z,9.50
2023-01-27T15:51:30.880Z,10.00
2023-01-27T15:54:01.225Z,9.10
2023-01-27T15:56:48.938Z,10.53
2023-01-27T15:59:21.149Z,9.13
2023-01-27T16:01:50.601Z,9.73
2023-01-27T16:04:25.305Z,9.70
2023-01-27T16:07:01.860Z,9.90
2023-01-27T16:09:39.250Z,9.87
2023-01-27T16:12:23.602Z,8.90
2023-01-27T16:15:12.157Z,10.33
2023-01-27T16:17:59.505Z,10.33
2023-01-27T16:20:31.359Z,10.30
2023-01-27T16:23:03.107Z,9.67
2023-01-27T16:25:39.732Z,9.17
2023-01-27T16:28:15.264Z,10.10
2023-01-27T16:30:48.803Z,10.00
2023-01-27T16:33:21.371Z,10.60
2023-01-27T16:35:54.226Z,9.60
2023-01-27T16:38:27.094Z,9.43
2023-01-27T16:40:57.822Z,9.67
2023-01-27T16:43:31.597Z,8.57
2023-01-27T16:46:01.847Z,9.37
2023-01-27T16:48:35.172Z,9.60
2023-01-27T16:51:13.845Z,9.40
2023-01-27T16:53:46.399Z,9.33
2023-01-27T16:56:21.852Z,8.37
2023-01-27T16:58:51.228Z,9.90
2023-01-27T17:01:24.142Z,8.93
2023-01-27T17:03:55.815Z,10.87
2023-01-27T17:06:27.621Z,9.57
2023-01-27T17:08:55.380Z,10.40
2023-01-27T17:11:25.402Z,10.07
2023-01-27T17:13:59.785Z,9.63
2023-01-27T17:16:31.057Z,9.80
2023-01-27T17:19:05.983Z,10.20
2023-01-27T17:21:38.830Z,10.37
2023-01-27T17:24:19.383Z,9.90
2023-01-27T17:26:50.382Z,10.40
2023-01-27T17:29:21.872Z,10.27
2023-01-27T17:31:51.201Z,10.80
2023-01-27T17:34:21.431Z,10.57
2023-01-27T17:37:16.126Z,10.10
2023-01-27T17:39:44.459Z,10.80
2023-01-27T17:42:17.703Z,10.87
2023-01-27T17:44:46.411Z,11.33
2023-01-27T17:47:16.235Z,10.50
2023-01-27T17:49:45.075Z,10.93
2023-01-27T17:52:19.681Z,10.60
2023-01-27T17:54:48.019Z,9.30
2023-01-27T17:57:21.509Z,9.90
2023-01-27T17:59:58.417Z,11.10
2023-01-27T18:02:29.726Z,10.67
2023-01-27T18:05:02.675Z,11.73
2023-01-27T18:07:32.246Z,9.73
2023-01-27T18:10:00.154Z,10.87
2023-01-27T18:12:33.666Z,11.80
2023-01-27T18:15:48.927Z,11.60
2023-01-27T18:18:23.730Z,10.77
2023-01-27T18:21:03.347Z,10.23
2023-01-27T18:23:34.901Z,10.57
2023-01-27T18:26:05.282Z,9.60
2023-01-27T18:28:35.877Z,10.97
2023-01-27T18:31:03.943Z,10.33
2023-01-27T18:33:34.053Z,9.70
2023-01-27T18:36:02.305Z,11.50
2023-01-27T18:38:32.678Z,10.67
2023-01-27T18:41:10.243Z,12.10
2023-01-27T18:43:38.094Z,11.40
2023-01-27T18:46:11.415Z,11.80
2023-01-27T18:48:40.187Z,12.73
2023-01-27T18:51:13.111Z,11.77
2023-01-27T18:53:42.607Z,12.17
2023-01-27T18:56:11.106Z,11.50
2023-01-27T18:58:39.336Z,12.63
2023-01-27T19:01:16.889Z,12.20
2023-01-27T19:03:44.666Z,11.07
2023-01-27T19:06:14.785Z,12.30
2023-01-27T19:08:44.417Z,12.30
2023-01-27T19:11:15.860Z,13.80
2023-01-27T19:13:44.319Z,13.00
2023-01-27T19:16:14.667Z,11.97
2023-01-27T19:18:43.283Z,11.50
2023-01-27T19:21:14.495Z,13.37
2023-01-27T19:23:44.694Z,13.00
2023-01-27T19:26:18.231Z,12.90
2023-01-27T19:28:47.324Z,12.30
2023-01-27T19:31:15.257Z,12.20
2023-01-27T19:33:44.784Z,12.90
2023-01-27T19:36:20.917Z,12.60
2023-01-27T19:38:53.860Z,12.53
2023-01-27T19:41:21.690Z,13.00
2023-01-27T19:43:50.044Z,15.20
2023-01-27T19:46:21.178Z,13.10
2023-01-27T19:48:49.688Z,13.50
2023-01-27T19:51:18.785Z,12.97
2023-01-27T19:53:46.783Z,13.30
2023-01-27T19:56:17.300Z,12.10
2023-01-27T19:58:47.136Z,12.60
2023-01-27T20:01:15.035Z,12.63
2023-01-27T20:03:42.918Z,11.43
2023-01-27T20:06:16.625Z,13.40
2023-01-27T20:08:44.841Z,13.40
2023-01-27T20:11:36.292Z,13.47
2023-01-27T20:14:07.519Z,13.30
2023-01-27T20:16:35.648Z,12.33
2023-01-27T20:19:04.115Z,13.17
2023-01-27T20:21:33.241Z,11.00
2023-01-27T20:24:01.822Z,13.13
2023-01-27T20:26:31.268Z,12.77
2023-01-27T20:29:00.829Z,12.07
2023-01-27T20:31:28.807Z,12.50
2023-01-27T20:33:56.617Z,12.97
2023-01-27T20:36:24.959Z,11.53
2023-01-27T20:38:53.458Z,11.80
2023-01-27T20:41:23.057Z,11.50
2023-01-27T20:43:55.859Z,11.73
2023-01-27T20:46:25.368Z,12.53
2023-01-27T20:48:54.212Z,12.87
2023-01-27T20:51:22.107Z,12.30
2023-01-27T20:53:49.924Z,11.10
2023-01-27T20:56:20.126Z,12.77
2023-01-27T20:58:48.651Z,11.07
2023-01-27T21:01:18.415Z,10.37
2023-01-27T21:03:47.942Z,10.50
2023-01-27T21:06:17.655Z,11.03
2023-01-27T21:08:47.529Z,10.93
2023-01-27T21:11:17.680Z,9.80
2023-01-27T21:13:45.930Z,9.90
2023-01-27T21:16:14.506Z,10.30
2023-01-27T21:18:43.956Z,11.40
2023-01-27T21:21:22.768Z,9.93
2023-01-27T21:23:50.703Z,10.00
2023-01-27T21:26:18.558Z,9.37
2023-01-27T21:28:46.389Z,9.80
2023-01-27T21:31:16.826Z,9.23
2023-01-27T21:33:46.888Z,10.33
2023-01-27T21:36:16.064Z,10.00
2023-01-27T21:38:44.116Z,8.80
2023-01-27T21:41:14.482Z,9.50
2023-01-27T21:44:00.041Z,9.97
2023-01-27T21:46:27.870Z,8.60
2023-01-27T21:48:55.682Z,8.67
2023-01-27T21:51:24.828Z,8.30
2023-01-27T21:53:52.644Z,8.50
2023-01-27T21:56:20.430Z,9.93
2023-01-27T21:58:48.219Z,8.67
2023-01-27T22:01:16.064Z,10.57
2023-01-27T22:03:44.183Z,8.70
2023-01-27T22:06:12.100Z,9.03
2023-01-27T22:08:41.234Z,9.43
2023-01-27T22:11:12.487Z,9.20
2023-01-27T22:13:40.688Z,8.57
2023-01-27T22:16:13.439Z,8.93
2023-01-27T22:18:41.283Z,9.80
2023-01-27T22:21:09.376Z,10.20
2023-01-27T22:23:37.241Z,8.90
2023-01-27T22:26:09.162Z,8.97
2023-01-27T22:28:37.083Z,9.20
2023-01-27T22:31:04.965Z,8.23
2023-01-27T22:33:33.044Z,9.70
2023-01-27T22:36:01.637Z,8.83
2023-01-27T22:38:29.461Z,8.87
2023-01-27T22:40:57.817Z,8.67
2023-01-27T22:43:27.272Z,9.47
2023-01-27T22:45:55.092Z,9.23
2023-01-27T22:48:22.938Z,9.13
2023-01-27T22:50:50.728Z,8.63
2023-01-27T22:53:18.530Z,9.00
2023-01-27T22:55:46.293Z,8.97
2023-01-27T22:58:14.098Z,9.20
2023-01-27T23:00:43.576Z,9.30
2023-01-27T23:03:11.359Z,8.80
2023-01-27T23:05:39.141Z,9.40
2023-01-27T23:08:06.969Z,8.67
2023-01-27T23:10:35.944Z,9.17
2023-01-27T23:13:03.917Z,10.00
2023-01-27T23:15:31.976Z,9.40
2023-01-27T23:18:01.102Z,9.10
2023-01-27T23:20:28.878Z,9.57
2023-01-27T23:22:56.664Z,10.10
2023-01-27T23:25:24.453Z,9.33
2023-01-27T23:27:52.253Z,8.57
2023-01-27T23:30:20.206Z,8.90
2023-01-27T23:32:48.005Z,9.60
2023-01-27T23:35:17.463Z,9.03
2023-01-27T23:37:45.346Z,11.27
2023-01-27T23:40:14.014Z,10.07
2023-01-27T23:42:41.797Z,8.50
2023-01-27T23:45:10.168Z,10.57
2023-01-27T23:47:37.989Z,9.73
2023-01-27T23:50:06.450Z,10.40
2023-01-27T23:52:36.323Z,9.93
2023-01-27T23:55:04.223Z,9.73
2023-01-27T23:57:32.157Z,10.10
2023-01-27T23:59:59.939Z,9.83
